WAAA/UPG METAR and TAF weather

Enter ICAO airport designator
Station Type Date Time Source
WAAA METAR 2021/03/01 10:30 UTC NOAA

WAAA 011030Z 35005KT 9999 FEW019 27/24 Q1010 NOSIG


Station Type Date Time Source
WAAA Decoded METAR 2021/03/01 10:30 UTC NOAA

Ujung Pandang / Hasanuddin, Indonesia (WAAA) 05-04S 119-33E 14M
Mar 01, 2021 - 05:30 AM EST / 2021.03.01 1030 UTC
Wind: from the N (350 degrees) at 6 MPH (5 KT):0
Visibility: greater than 7 mile(s):0
Sky conditions: mostly clear
Temperature: 80 F (27 C)
Dew Point: 75 F (24 C)
Relative Humidity: 83%
Pressure (altimeter): 29.83 in. Hg (1010 hPa)
ob: WAAA 011030Z 35005KT 9999 FEW019 27/24 Q1010 NOSIG
cycle: 10

Station Type Date Time Source
WAAA TAF 2021/03/01 06:48 UTC NOAA

TAF TAF WAAA 010500Z 0106/0212 33010KT 9999 SCT018
BECMG 0110/0112 10004KT 8000

Example: see airport list